Time;durP1;ratioP1;P1;durP2;ratioP2;P2;SDS_P1;SDS_P2;PMS_P1;PMS_P2;Temp;Humidity;BMP_temperature;BMP_pressure;BME280_temperature;BME280_humidity;BME280_pressure;Samples;Min_cycle;Max_cycle;Signal;HPM_P1;HPM_P2
2023/10/13 00:01:23;;;;;;;23.92;8.07;;;;;;;20.66;63.89;98253.00;4378527;32;20162;-78
2023/10/13 00:03:54;;;;;;;19.08;8.23;;;;;;;20.21;66.71;98258.31;4379463;32;20176;-78
2023/10/13 00:06:21;;;;;;;16.33;7.35;;;;;;;20.31;69.08;98260.19;4379605;32;20078;-78
2023/10/13 00:08:48;;;;;;;20.35;8.30;;;;;;;20.62;67.48;98262.06;4379438;32;20094;-78
2023/10/13 00:11:15;;;;;;;20.45;8.00;;;;;;;20.86;67.01;98259.25;4379312;32;20569;-78
2023/10/13 00:13:50;;;;;;;18.20;7.57;;;;;;;20.69;68.28;98263.25;4379591;32;20091;-78
2023/10/13 00:16:21;;;;;;;15.00;7.43;;;;;;;20.45;69.23;98270.44;4379503;32;20124;-78
2023/10/13 00:18:54;;;;;;;20.37;8.85;;;;;;;19.45;72.22;98273.78;4379342;32;20446;-78
2023/10/13 00:21:33;;;;;;;17.15;7.47;;;;;;;19.65;70.65;98273.16;4379488;32;20120;-78
2023/10/13 00:24:14;;;;;;;18.80;7.72;;;;;;;20.04;69.20;98274.50;4379510;32;20114;-78
2023/10/13 00:26:43;;;;;;;20.25;8.27;;;;;;;20.27;67.09;98271.87;4379280;32;20481;-78
2023/10/13 00:31:42;;;;;;;16.02;8.05;;;;;;;19.63;72.54;98267.19;4379244;32;20113;-78
2023/10/13 00:34:12;;;;;;;19.40;7.90;;;;;;;20.07;72.08;98273.41;4379339;32;20145;-78
2023/10/13 00:36:48;;;;;;;17.77;8.70;;;;;;;20.22;72.73;98270.44;4379126;32;20163;-78
2023/10/13 00:39:16;;;;;;;29.65;8.57;;;;;;;20.09;74.00;98268.88;4378084;32;20103;-78
2023/10/13 00:41:57;;;;;;;18.67;7.82;;;;;;;20.57;72.86;98273.88;4379204;32;20102;-78
2023/10/13 00:44:41;;;;;;;17.95;8.10;;;;;;;20.79;71.40;98265.94;4379202;32;20096;-78
2023/10/13 00:47:16;;;;;;;23.00;8.60;;;;;;;20.76;70.99;98269.66;4379825;32;20083;-78
2023/10/13 00:49:47;;;;;;;21.75;8.27;;;;;;;20.48;72.17;98267.56;4381007;32;20099;-78
2023/10/13 00:52:15;;;;;;;21.00;8.38;;;;;;;20.55;72.50;98266.16;4381120;32;20086;-78
2023/10/13 00:54:47;;;;;;;17.33;8.27;;;;;;;20.77;71.52;98276.56;4379597;32;20161;-78
2023/10/13 00:57:26;;;;;;;17.58;8.05;;;;;;;20.28;72.79;98268.28;4379842;32;20139;-78
2023/10/13 00:59:57;;;;;;;20.65;8.82;;;;;;;20.67;71.35;98274.81;4379800;32;20100;-78
2023/10/13 01:02:39;;;;;;;22.40;8.57;;;;;;;20.14;71.18;98283.31;4380847;32;20468;-78
2023/10/13 01:05:14;;;;;;;17.08;7.82;;;;;;;20.01;70.53;98287.00;4380826;32;20087;-78
2023/10/13 01:07:41;;;;;;;19.98;7.97;;;;;;;19.59;69.76;98289.34;4379666;32;20148;-78
2023/10/13 01:10:15;;;;;;;21.20;8.35;;;;;;;20.54;66.76;98277.59;4380694;32;20117;-78
2023/10/13 01:12:45;;;;;;;20.08;8.63;;;;;;;20.95;64.79;98276.88;4380949;32;20162;-78
2023/10/13 01:15:17;;;;;;;20.27;8.90;;;;;;;20.79;64.97;98272.03;4380623;32;20087;-78
2023/10/13 01:17:45;;;;;;;25.30;7.87;;;;;;;20.69;65.70;98272.91;4380994;32;20079;-78
2023/10/13 01:20:26;;;;;;;21.52;8.55;;;;;;;21.80;61.70;98268.94;4380787;32;20153;-78
2023/10/13 01:22:56;;;;;;;20.73;8.00;;;;;;;21.62;62.80;98267.84;4380613;32;20161;-78
2023/10/13 01:25:28;;;;;;;17.58;7.87;;;;;;;21.66;64.34;98270.09;4379575;32;20121;-78
2023/10/13 01:27:57;;;;;;;17.60;8.20;;;;;;;21.59;65.52;98273.38;4380556;32;20083;-78
2023/10/13 01:30:24;;;;;;;15.52;7.37;;;;;;;21.65;64.24;98276.28;4380756;32;20091;-78
2023/10/13 01:32:53;;;;;;;17.20;7.32;;;;;;;21.29;65.24;98268.88;4380770;32;20099;-78
2023/10/13 01:35:36;;;;;;;16.23;7.60;;;;;;;20.91;66.97;98266.75;4380495;32;20434;-78
2023/10/13 01:38:03;;;;;;;22.67;7.75;;;;;;;21.71;62.84;98274.97;4379783;32;20095;-78
2023/10/13 01:40:33;;;;;;;19.55;7.78;;;;;;;21.92;61.66;98267.06;4379541;32;20125;-78
2023/10/13 01:43:01;;;;;;;18.27;8.32;;;;;;;21.79;63.03;98272.50;4380599;32;20108;-78
2023/10/13 01:45:31;;;;;;;17.48;7.95;;;;;;;21.87;64.32;98274.47;4380547;32;20099;-78
2023/10/13 01:47:58;;;;;;;15.82;7.37;;;;;;;20.76;68.58;98269.66;4380739;32;20083;-78
2023/10/13 01:50:29;;;;;;;16.02;7.85;;;;;;;20.19;69.49;98260.19;4380513;32;20162;-78
2023/10/13 01:55:56;;;;;;;20.35;7.80;;;;;;;21.11;65.10;98259.88;4376639;32;20174;-78
2023/10/13 01:58:26;;;;;;;20.48;8.55;;;;;;;21.25;63.09;98265.63;4380384;32;20178;-78
2023/10/13 02:00:53;;;;;;;17.58;8.05;;;;;;;19.76;69.87;98273.16;4380630;32;20157;-78
2023/10/13 02:03:21;;;;;;;17.35;7.45;;;;;;;20.72;66.88;98276.09;4380374;32;20098;-78
2023/10/13 02:05:49;;;;;;;16.90;6.93;;;;;;;20.37;67.20;98267.56;4380421;32;20156;-78
2023/10/13 02:08:22;;;;;;;20.40;8.00;;;;;;;20.59;66.74;98264.09;4380275;32;20067;-78
2023/10/13 02:10:54;;;;;;;17.87;7.60;;;;;;;21.17;64.17;98275.94;4379281;32;20117;-78
2023/10/13 02:13:22;;;;;;;18.35;8.02;;;;;;;20.80;65.69;98275.47;4379454;32;20107;-78
2023/10/13 02:15:53;;;;;;;17.85;7.82;;;;;;;20.32;66.89;98272.34;4380280;32;20162;-78
2023/10/13 02:18:27;;;;;;;21.37;8.45;;;;;;;20.70;65.93;98274.56;4379281;32;20082;-78
2023/10/13 02:20:55;;;;;;;16.83;8.07;;;;;;;20.83;65.61;98274.41;4380615;32;20446;-78
2023/10/13 02:23:29;;;;;;;20.55;7.72;;;;;;;20.48;66.51;98276.28;4380269;32;20102;-78
2023/10/13 02:26:10;;;;;;;15.82;6.87;;;;;;;20.62;66.13;98275.16;4380173;32;20095;-78
2023/10/13 02:28:37;;;;;;;17.95;7.93;;;;;;;20.53;66.79;98281.16;4380425;32;20087;-78
2023/10/13 02:31:06;;;;;;;17.95;7.62;;;;;;;20.84;66.00;98273.44;4380380;32;20099;-78
2023/10/13 02:33:34;;;;;;;16.65;7.35;;;;;;;20.48;66.89;98263.16;4367040;32;20114;-78
2023/10/13 02:36:05;;;;;;;21.20;9.00;;;;;;;20.76;66.12;98259.19;4380143;32;20107;-78
2023/10/13 02:41:32;;;;;;;16.58;8.00;;;;;;;20.94;65.01;98258.63;4380383;32;20099;-78
2023/10/13 02:43:59;;;;;;;15.82;7.37;;;;;;;20.85;64.86;98260.22;4378322;32;20154;-80
2023/10/13 02:46:29;;;;;;;23.23;8.02;;;;;;;20.79;64.61;98252.84;4380109;32;20173;-78
2023/10/13 02:48:58;;;;;;;17.37;7.68;;;;;;;21.08;64.57;98268.84;4380199;32;20079;-78
2023/10/13 02:51:31;;;;;;;19.83;8.27;;;;;;;21.14;64.30;98272.72;4379096;32;20166;-78
2023/10/13 02:54:02;;;;;;;22.92;7.30;;;;;;;21.09;64.92;98271.31;4379963;32;20129;-78
2023/10/13 02:56:30;;;;;;;16.37;7.78;;;;;;;20.14;67.14;98274.62;4380188;32;20126;-78
2023/10/13 02:58:56;;;;;;;18.77;8.02;;;;;;;19.86;68.32;98266.28;4380105;32;20436;-78
2023/10/13 03:01:33;;;;;;;19.87;8.15;;;;;;;19.69;70.23;98261.50;4380006;32;20095;-78
2023/10/13 03:04:08;;;;;;;17.95;8.15;;;;;;;19.19;73.45;98267.91;4380164;32;20103;-78
2023/10/13 03:06:39;;;;;;;26.25;9.05;;;;;;;20.01;70.07;98269.50;4379996;32;20170;-78
2023/10/13 03:09:16;;;;;;;18.73;8.07;;;;;;;19.77;71.64;98279.22;4379085;32;20152;-78
2023/10/13 03:11:48;;;;;;;22.80;8.93;;;;;;;20.40;68.98;98275.19;4380186;32;20146;-78
2023/10/13 03:14:31;;;;;;;20.33;8.20;;;;;;;20.48;69.11;98262.34;4380003;32;20451;-78
2023/10/13 03:17:08;;;;;;;18.08;8.63;;;;;;;20.12;70.27;98271.28;4379022;32;20101;-78
2023/10/13 03:19:39;;;;;;;20.60;8.32;;;;;;;19.28;74.79;98270.66;4379052;32;20434;-78
2023/10/13 03:22:09;;;;;;;19.95;8.38;;;;;;;19.46;75.29;98271.09;4379902;32;20087;-78
2023/10/13 03:24:45;;;;;;;19.00;8.43;;;;;;;19.52;74.49;98267.97;4378928;32;20169;-78
2023/10/13 03:27:17;;;;;;;17.87;8.30;;;;;;;19.99;72.19;98265.31;4379687;32;20173;-78
2023/10/13 03:29:54;;;;;;;19.87;9.05;;;;;;;19.76;73.28;98261.84;4380094;32;20117;-78
2023/10/13 03:32:26;;;;;;;22.23;8.55;;;;;;;20.00;72.55;98252.12;4379978;32;20494;-78
2023/10/13 03:37:40;;;;;;;20.05;7.85;;;;;;;19.51;75.58;98255.03;4378869;32;20095;-78
2023/10/13 03:45:39;;;;;;;20.83;8.05;;;;;;;20.50;68.87;98256.00;4379939;32;20556;-78
2023/10/13 03:48:21;;;;;;;17.35;8.25;;;;;;;20.46;69.35;98259.84;4379832;32;20078;-78
2023/10/13 03:50:57;;;;;;;17.77;8.63;;;;;;;20.30;68.98;98256.72;4379863;32;20087;-78
2023/10/13 03:53:33;;;;;;;17.17;8.02;;;;;;;21.00;65.26;98261.59;4379703;32;20117;-78
2023/10/13 03:56:26;;;;;;;16.48;6.87;;;;;;;21.24;62.84;98260.50;4379586;32;20460;-78
2023/10/13 03:59:04;;;;;;;22.55;7.87;;;;;;;20.88;64.02;98262.59;4379839;32;20106;-78
2023/10/13 04:01:32;;;;;;;19.80;8.57;;;;;;;20.47;66.01;98263.28;4379762;32;20138;-78
2023/10/13 04:04:10;;;;;;;20.52;9.32;;;;;;;20.26;66.67;98262.34;4379340;32;20099;-78
2023/10/13 04:17:22;;;;;;;21.87;9.10;;;;;;;19.40;74.64;98252.38;4379435;32;20099;-78
2023/10/13 04:33:48;;;;;;;20.08;9.10;;;;;;;19.86;75.04;98266.28;4379431;32;20423;-78
2023/10/13 04:36:21;;;;;;;21.25;9.00;;;;;;;20.42;71.83;98263.69;4379119;32;20117;-78
2023/10/13 04:39:14;;;;;;;24.75;9.98;;;;;;;20.38;71.09;98262.19;4379118;32;20083;-78
2023/10/13 04:41:42;;;;;;;20.55;9.23;;;;;;;20.54;71.07;98263.66;4379107;32;20091;-78
2023/10/13 04:57:46;;;;;;;22.83;9.00;;;;;;;21.20;64.73;98269.63;4378957;32;20114;-76
2023/10/13 05:45:07;;;;;;;20.52;8.57;;;;;;;19.52;71.98;98316.87;4380682;32;20458;-79
2023/10/13 06:28:42;;;;;;;22.87;9.75;;;;;;;22.13;64.94;98382.66;4380553;32;20143;-78
2023/10/13 06:31:22;;;;;;;17.90;7.80;;;;;;;22.38;64.81;98381.38;4380071;32;20086;-78
2023/10/13 06:33:50;;;;;;;16.87;7.57;;;;;;;23.34;62.15;98379.03;4379361;32;20144;-78
2023/10/13 06:36:20;;;;;;;23.80;8.75;;;;;;;23.90;60.54;98386.25;4379818;32;20166;-78
2023/10/13 06:38:55;;;;;;;21.77;8.55;;;;;;;24.20;59.67;98387.84;4380226;32;20099;-77
2023/10/13 06:41:30;;;;;;;20.05;8.27;;;;;;;25.01;58.21;98397.81;4380301;32;20153;-77
2023/10/13 06:44:01;;;;;;;17.87;7.80;;;;;;;24.97;57.48;98402.53;4378588;32;20083;-77
2023/10/13 06:46:28;;;;;;;19.17;7.90;;;;;;;26.00;53.36;98403.09;4378756;32;20106;-77
2023/10/13 06:48:59;;;;;;;15.40;7.32;;;;;;;27.07;50.41;98414.13;4378619;32;20117;-77
2023/10/13 06:51:31;;;;;;;17.37;7.68;;;;;;;27.82;48.40;98404.31;4379977;32;20121;-78
2023/10/13 06:53:58;;;;;;;19.73;8.90;;;;;;;28.34;47.91;98401.31;4380164;32;20083;-78
2023/10/13 06:56:27;;;;;;;14.95;7.57;;;;;;;28.55;47.49;98400.75;4378993;32;20170;-81
2023/10/13 06:58:59;;;;;;;19.83;8.68;;;;;;;28.39;47.94;98396.34;4379681;32;20450;-82
2023/10/13 07:01:27;;;;;;;15.82;8.25;;;;;;;28.17;49.00;98394.34;4379990;32;20097;-81
2023/10/13 07:04:00;;;;;;;17.87;7.90;;;;;;;28.87;47.55;98401.63;4380043;32;20091;-81
2023/10/13 07:06:28;;;;;;;17.12;8.00;;;;;;;29.02;46.61;98397.25;4378629;32;20162;-83
2023/10/13 07:08:56;;;;;;;20.30;8.00;;;;;;;29.19;46.27;98400.66;4380031;32;20166;-83
2023/10/13 07:11:42;;;;;;;19.50;8.60;;;;;;;29.96;45.17;98401.44;4379997;32;20472;-82
2023/10/13 07:14:16;;;;;;;17.08;7.65;;;;;;;30.03;44.55;98404.22;4380139;32;20083;-81
2023/10/13 07:16:58;;;;;;;16.87;8.30;;;;;;;30.24;44.00;98402.53;4377898;32;20169;-81
2023/10/13 07:19:28;;;;;;;21.25;8.50;;;;;;;30.10;44.67;98406.00;4379820;32;20166;-82
2023/10/13 07:21:59;;;;;;;18.70;8.48;;;;;;;29.90;45.09;98397.69;4378924;32;20149;-81
2023/10/13 07:24:39;;;;;;;16.10;7.53;;;;;;;29.33;46.74;98397.25;4379894;32;20424;-81
2023/10/13 07:27:07;;;;;;;18.55;7.80;;;;;;;28.88;48.79;98392.66;4378411;32;20099;-81
2023/10/13 07:29:35;;;;;;;18.27;7.60;;;;;;;29.33;47.89;98400.72;4378745;32;20107;-81
2023/10/13 07:32:03;;;;;;;17.58;7.03;;;;;;;29.38;47.34;98392.25;4379767;32;20105;-80
2023/10/13 07:34:33;;;;;;;18.73;7.78;;;;;;;29.16;47.76;98393.03;4379432;32;20531;-80
2023/10/13 07:37:00;;;;;;;16.75;7.68;;;;;;;29.38;46.88;98400.22;4378418;32;20114;-81
2023/10/13 07:39:34;;;;;;;14.95;7.15;;;;;;;29.16;47.82;98395.72;4379843;32;20098;-80
2023/10/13 07:42:15;;;;;;;20.23;7.62;;;;;;;29.34;46.31;98394.41;4379798;32;20086;-80
2023/10/13 07:44:45;;;;;;;16.42;7.95;;;;;;;29.32;46.08;98401.72;4379745;32;20108;-80
2023/10/13 07:47:20;;;;;;;17.35;7.12;;;;;;;29.05;46.83;98395.09;4379382;32;20114;-81
2023/10/13 07:49:50;;;;;;;17.87;7.07;;;;;;;29.09;46.38;98395.56;4379784;32;20131;-79
2023/10/13 07:57:53;;;;;;;;;;;;;;;29.10;45.76;98400.69;4379087;32;20144;-80
2023/10/13 08:00:29;;;;;;;19.05;6.68;;;;;;;28.88;42.99;98397.97;4378678;32;20005;-81
2023/10/13 08:03:17;;;;;;;17.73;7.62;;;;;;;29.24;41.89;98388.50;4378285;32;20105;-81
2023/10/13 08:06:07;;;;;;;16.55;6.60;;;;;;;29.46;43.23;98394.03;4378491;32;20078;-80
2023/10/13 08:08:40;;;;;;;17.08;6.43;;;;;;;29.44;43.18;98388.03;4379013;32;20458;-81
2023/10/13 08:13:55;;;;;;;20.88;7.00;;;;;;;29.24;42.81;98382.34;4379878;32;20091;-80
2023/10/13 08:19:27;;;;;;;14.75;6.35;;;;;;;29.01;42.73;98382.31;4376761;32;20155;-80
2023/10/13 08:21:59;;;;;;;16.50;7.25;;;;;;;29.06;42.63;98382.63;4379071;32;20117;-81
2023/10/13 08:24:55;;;;;;;19.95;6.37;;;;;;;29.00;42.35;98383.31;4379123;32;20109;-81
2023/10/13 08:27:33;;;;;;;18.60;6.22;;;;;;;29.04;41.95;98388.13;4378646;32;20129;-80
2023/10/13 08:48:14;;;;;;;15.15;6.57;;;;;;;28.36;44.10;98407.25;4378853;32;20135;-79
2023/10/13 08:56:17;;;;;;;16.95;6.60;;;;;;;28.23;45.34;98404.28;4378542;32;20112;-80
2023/10/13 09:15:05;;;;;;;12.73;5.72;;;;;;;31.13;38.21;98413.16;4380803;32;20106;-78
2023/10/13 09:20:42;;;;;;;16.30;6.00;;;;;;;31.29;37.96;98404.16;4381022;32;20110;-78
2023/10/13 09:23:12;;;;;;;13.40;6.25;;;;;;;30.83;38.32;98403.56;4380920;32;20098;-78
2023/10/13 09:25:53;;;;;;;16.75;5.95;;;;;;;31.41;37.26;98397.31;4379102;32;20115;-78
2023/10/13 09:28:25;;;;;;;16.58;5.35;;;;;;;31.75;36.17;98391.28;4374484;32;146429;-78
2023/10/13 09:30:53;;;;;;;15.82;5.30;;;;;;;31.53;36.32;98393.13;4380035;32;20331;-78
2023/10/13 09:34:09;;;;;;;16.85;5.80;;;;;;;32.13;35.62;98399.00;4380424;32;20157;-78
2023/10/13 09:36:13;;;;;;;17.25;5.45;;;;;;;31.96;35.22;98395.78;4377519;32;20103;-78
2023/10/13 09:38:40;;;;;;;15.77;5.30;;;;;;;31.79;36.02;98387.22;4380569;32;20169;-78
2023/10/13 09:41:26;;;;;;;14.25;5.47;;;;;;;32.38;34.38;98386.03;4380247;32;20090;-78
2023/10/13 09:43:57;;;;;;;17.25;5.10;;;;;;;32.33;34.53;98394.66;4380158;32;20071;-78
2023/10/13 09:46:28;;;;;;;13.27;4.97;;;;;;;33.03;32.08;98392.75;4380361;32;20133;-78
2023/10/13 09:49:07;;;;;;;12.10;5.00;;;;;;;33.71;30.19;98390.03;4379492;32;20105;-78
2023/10/13 09:51:34;;;;;;;16.20;4.43;;;;;;;33.71;30.57;98390.03;4379551;32;20082;-78
2023/10/13 09:54:11;;;;;;;12.98;4.37;;;;;;;34.46;28.67;98392.31;4380192;32;20521;-78
2023/10/13 09:56:51;;;;;;;12.45;4.18;;;;;;;34.84;28.71;98391.53;4380379;32;20585;-78
2023/10/13 09:59:25;;;;;;;10.93;4.25;;;;;;;35.14;27.93;98393.72;4380469;32;20110;-80
2023/10/13 10:01:58;;;;;;;13.20;3.97;;;;;;;34.66;28.06;98389.53;4378939;32;20079;-79
2023/10/13 10:04:25;;;;;;;11.82;3.97;;;;;;;34.35;27.63;98386.72;4379243;32;20102;-78
2023/10/13 10:06:56;;;;;;;13.30;4.10;;;;;;;35.39;26.36;98385.75;4380123;32;20520;-78
2023/10/13 10:09:39;;;;;;;16.17;4.22;;;;;;;35.92;25.74;98378.16;4380177;32;20101;-78
2023/10/13 10:12:35;;;;;;;13.80;4.00;;;;;;;35.66;25.64;98373.81;4379211;32;20103;-78
2023/10/13 10:15:46;;;;;;;12.90;4.72;;;;;;;35.85;26.24;98372.00;4378706;32;20164;-78
2023/10/13 10:18:22;;;;;;;16.08;4.80;;;;;;;35.33;27.33;98372.16;4380313;32;20112;-79
2023/10/13 10:20:52;;;;;;;14.45;4.05;;;;;;;35.73;27.04;98371.03;4380359;32;20091;-79
2023/10/13 10:23:35;;;;;;;15.70;4.65;;;;;;;36.13;26.11;98371.56;4380319;32;20086;-79
2023/10/13 10:26:15;;;;;;;13.15;3.90;;;;;;;36.54;26.39;98379.00;4380161;32;20210;-79
2023/10/13 10:28:43;;;;;;;9.20;3.53;;;;;;;35.66;25.19;98371.13;4378915;32;20115;-79
2023/10/13 10:31:17;;;;;;;11.00;4.22;;;;;;;35.85;25.43;98377.37;4380295;32;20091;-79
2023/10/13 10:33:45;;;;;;;15.02;5.15;;;;;;;35.35;27.73;98379.97;4380480;32;20421;-79
2023/10/13 10:36:15;;;;;;;9.60;4.03;;;;;;;35.68;26.25;98374.41;4379787;32;20114;-78
2023/10/13 10:38:59;;;;;;;11.38;3.95;;;;;;;35.92;25.16;98365.53;4379167;32;20126;-78
2023/10/13 10:44:34;;;;;;;13.62;3.80;;;;;;;34.34;27.06;98369.00;4379858;32;20082;-78
2023/10/13 10:47:11;;;;;;;12.35;4.78;;;;;;;34.12;26.62;98365.75;4380199;32;20099;-79
2023/10/13 10:49:38;;;;;;;15.25;5.20;;;;;;;34.34;29.25;98363.63;4379642;32;20099;-78
2023/10/13 10:52:14;;;;;;;17.05;5.30;;;;;;;33.85;31.15;98356.91;4380150;32;20152;-78
2023/10/13 10:54:44;;;;;;;13.05;5.37;;;;;;;34.45;30.98;98354.97;4380216;32;20082;-78
2023/10/13 10:57:12;;;;;;;14.87;5.40;;;;;;;33.44;32.07;98354.41;4378418;32;20544;-78
2023/10/13 10:59:40;;;;;;;13.52;5.93;;;;;;;32.99;32.78;98354.09;4380044;32;20116;-78
2023/10/13 11:02:08;;;;;;;14.20;5.53;;;;;;;32.42;34.07;98352.56;4379962;32;20105;-78
2023/10/13 11:04:50;;;;;;;18.83;5.40;;;;;;;32.93;33.63;98344.19;4378420;32;20109;-78
2023/10/13 11:07:23;;;;;;;12.82;5.35;;;;;;;32.85;34.20;98337.16;4379003;32;20133;-77
2023/10/13 11:09:52;;;;;;;15.68;5.43;;;;;;;32.94;33.25;98335.16;4379639;32;20473;-78
2023/10/13 11:12:24;;;;;;;11.77;5.25;;;;;;;33.17;33.55;98334.78;4378709;32;20090;-78
2023/10/13 11:15:12;;;;;;;15.32;5.47;;;;;;;32.83;33.21;98330.38;4379975;32;20087;-78
2023/10/13 11:17:43;;;;;;;12.40;5.30;;;;;;;32.48;32.70;98336.59;4379606;32;20118;-80
2023/10/13 11:20:17;;;;;;;13.75;5.55;;;;;;;32.68;32.31;98333.19;4380086;32;20438;-79
2023/10/13 11:22:48;;;;;;;15.95;5.30;;;;;;;32.73;33.26;98328.06;4379807;32;20083;-78
2023/10/13 11:25:35;;;;;;;14.23;4.60;;;;;;;32.87;32.38;98323.63;4379502;32;20079;-77
2023/10/13 11:28:27;;;;;;;17.40;5.37;;;;;;;32.81;32.93;98315.34;4378859;32;20114;-79
2023/10/13 11:30:58;;;;;;;13.23;5.53;;;;;;;32.28;33.27;98324.13;4378131;32;20103;-79
2023/10/13 11:33:31;;;;;;;13.75;4.87;;;;;;;31.98;32.92;98320.84;4378481;32;20113;-78
2023/10/13 11:36:03;;;;;;;14.70;4.62;;;;;;;31.98;33.38;98324.34;4379733;32;20394;-79
2023/10/13 11:41:11;;;;;;;12.05;4.20;;;;;;;32.45;31.95;98328.16;4379904;32;20106;-77
2023/10/13 11:46:15;;;;;;;11.88;4.32;;;;;;;32.09;31.62;98315.78;4379296;32;20134;-77
2023/10/13 11:48:46;;;;;;;12.70;4.00;;;;;;;32.51;31.33;98316.66;4366965;32;20117;-77
2023/10/13 11:51:17;;;;;;;13.05;4.20;;;;;;;32.10;30.68;98311.28;4379725;32;20434;-78
2023/10/13 11:53:51;;;;;;;13.05;4.22;;;;;;;32.53;30.30;98312.75;4378289;32;20144;-77
2023/10/13 11:56:22;;;;;;;13.50;4.37;;;;;;;32.21;30.76;98314.22;4379680;32;20430;-76
2023/10/13 11:58:49;;;;;;;10.30;4.00;;;;;;;32.79;29.99;98308.56;4378833;32;20102;-78
2023/10/13 12:11:54;;;;;;;12.25;3.80;;;;;;;32.87;29.27;98303.06;4379649;32;20126;-77
2023/10/13 12:14:37;;;;;;;12.18;4.35;;;;;;;32.68;28.78;98288.59;4379122;32;20095;-77
2023/10/13 12:17:04;;;;;;;11.12;3.42;;;;;;;32.46;28.61;98303.91;4379535;32;20425;-77
2023/10/13 12:19:34;;;;;;;13.98;3.65;;;;;;;32.32;29.07;98294.19;4379464;32;20102;-77
2023/10/13 12:22:16;;;;;;;11.00;3.47;;;;;;;31.61;29.74;98296.16;4379083;32;20094;-77
2023/10/13 12:24:53;;;;;;;10.07;3.22;;;;;;;31.83;29.15;98295.13;4379184;32;20087;-78
2023/10/13 12:27:20;;;;;;;;;;;;;;;32.24;28.68;98303.16;4379334;32;20121;-77
2023/10/13 12:29:47;;;;;;;13.20;3.95;;;;;;;32.07;28.79;98293.00;4379435;32;19979;-77
2023/10/13 12:32:20;;;;;;;12.68;3.60;;;;;;;32.13;28.95;98294.91;4379398;32;20117;-77
2023/10/13 12:51:20;;;;;;;11.50;3.65;;;;;;;31.43;29.60;98285.94;4381006;32;20154;-77
2023/10/13 12:53:51;;;;;;;13.50;3.80;;;;;;;31.50;30.00;98286.84;4380974;32;20103;-77
2023/10/13 12:56:25;;;;;;;11.68;3.72;;;;;;;31.44;29.75;98278.78;4380519;32;20087;-78
2023/10/13 12:58:54;;;;;;;13.07;4.22;;;;;;;31.16;29.14;98282.22;4380799;32;20422;-77
2023/10/13 13:01:24;;;;;;;13.05;3.47;;;;;;;30.70;29.92;98273.72;4380943;32;20166;-78
2023/10/13 13:03:57;;;;;;;14.35;3.70;;;;;;;30.56;29.93;98271.91;4380855;32;20098;-77
2023/10/13 13:06:25;;;;;;;12.80;4.10;;;;;;;30.95;29.74;98271.53;4380636;32;20146;-78
2023/10/13 13:08:53;;;;;;;12.35;3.87;;;;;;;30.97;29.01;98275.66;4380441;32;20075;-79
2023/10/13 13:11:20;;;;;;;9.95;3.42;;;;;;;30.64;30.31;98279.81;4380506;32;20106;-78
2023/10/13 13:13:51;;;;;;;12.75;3.30;;;;;;;30.46;29.29;98275.69;4380794;32;20437;-78
2023/10/13 13:16:20;;;;;;;12.73;3.75;;;;;;;30.76;29.28;98273.81;4380604;32;20141;-79
2023/10/13 13:18:47;;;;;;;9.15;3.10;;;;;;;29.97;30.55;98272.75;4380734;32;20102;-79
2023/10/13 13:21:19;;;;;;;14.10;4.40;;;;;;;30.00;30.76;98268.91;4380764;32;20452;-77
2023/10/13 13:23:47;;;;;;;12.27;3.85;;;;;;;29.10;32.23;98262.56;4380506;32;20150;-79
2023/10/13 13:26:17;;;;;;;11.50;3.78;;;;;;;29.51;31.70;98261.41;4381024;32;20118;-79
2023/10/13 13:28:45;;;;;;;9.70;3.20;;;;;;;29.94;31.66;98263.28;4382766;32;20430;-80
2023/10/13 13:31:12;;;;;;;12.02;3.97;;;;;;;30.05;31.77;98263.84;4380294;32;20473;-79
2023/10/13 13:33:43;;;;;;;13.32;4.00;;;;;;;30.81;30.84;98260.72;4380799;32;20127;-79
2023/10/13 13:36:14;;;;;;;12.60;3.75;;;;;;;30.33;30.81;98256.06;4379377;32;20170;-79
2023/10/13 13:38:48;;;;;;;14.98;4.43;;;;;;;30.20;30.68;98262.03;4380409;32;20164;-79
2023/10/13 13:41:17;;;;;;;13.60;4.15;;;;;;;30.11;31.46;98257.84;4380737;32;20106;-79
2023/10/13 13:43:54;;;;;;;11.20;3.33;;;;;;;30.00;31.59;98260.94;4380673;32;20151;-78
2023/10/13 13:46:32;;;;;;;12.23;3.60;;;;;;;29.66;31.84;98256.94;4379218;32;20082;-78
2023/10/13 13:49:00;;;;;;;12.98;3.50;;;;;;;29.90;30.54;98251.38;4382562;32;20714;-81
2023/10/13 13:51:28;;;;;;;10.98;3.80;;;;;;;29.67;30.91;98255.97;4384566;32;20150;-81
2023/10/13 13:53:56;;;;;;;9.38;3.10;;;;;;;29.98;30.54;98247.78;4381350;32;20102;-80
2023/10/13 13:56:27;;;;;;;12.82;3.97;;;;;;;30.06;31.39;98249.53;4385802;32;20154;-81
2023/10/13 13:58:58;;;;;;;14.52;4.65;;;;;;;30.06;31.22;98247.72;4385419;32;20083;-81
2023/10/13 14:01:25;;;;;;;16.45;5.37;;;;;;;29.85;33.01;98236.97;4387222;32;20394;-80
2023/10/13 14:03:56;;;;;;;13.77;4.82;;;;;;;29.65;33.72;98249.97;4383592;32;20091;-80
2023/10/13 14:06:26;;;;;;;13.50;4.97;;;;;;;29.65;33.40;98239.34;4381727;32;20177;-79
2023/10/13 14:08:54;;;;;;;14.43;4.65;;;;;;;29.19;35.03;98244.72;4380882;32;20059;-79
2023/10/13 14:14:04;;;;;;;12.05;4.40;;;;;;;28.95;36.38;98236.94;4380845;32;20170;-79
2023/10/13 14:16:33;;;;;;;14.68;4.07;;;;;;;28.97;35.22;98229.62;4381147;32;20106;-79
2023/10/13 14:19:07;;;;;;;12.25;4.45;;;;;;;28.94;34.50;98237.97;4380694;32;20118;-80
2023/10/13 14:21:35;;;;;;;12.20;3.45;;;;;;;28.52;33.76;98226.75;4380185;32;20095;-80
2023/10/13 14:24:02;;;;;;;13.65;4.55;;;;;;;28.37;32.44;98230.28;4380461;32;20091;-79
2023/10/13 14:26:30;;;;;;;13.62;4.70;;;;;;;28.22;34.69;98225.69;4379936;32;20094;-78
2023/10/13 14:29:01;;;;;;;13.00;4.30;;;;;;;28.04;35.91;98226.94;4379291;32;20091;-78
2023/10/13 14:31:30;;;;;;;14.05;5.50;;;;;;;28.06;36.05;98232.87;4380415;32;20505;-81
2023/10/13 14:33:57;;;;;;;13.60;4.37;;;;;;;27.95;37.36;98228.78;4382736;32;20564;-82
2023/10/13 14:36:28;;;;;;;12.45;5.05;;;;;;;27.91;36.74;98216.87;4380363;32;20142;-81
2023/10/13 14:38:56;;;;;;;13.80;4.78;;;;;;;27.92;36.98;98219.34;4379734;32;20109;-81
2023/10/13 14:41:23;;;;;;;17.83;5.00;;;;;;;27.91;37.44;98223.00;4380124;32;20101;-82
2023/10/13 14:43:50;;;;;;;16.70;5.62;;;;;;;27.75;37.51;98216.91;4380341;32;20172;-82
2023/10/13 14:46:19;;;;;;;13.38;5.00;;;;;;;27.70;38.64;98213.97;4380011;32;20464;-81
2023/10/13 14:48:48;;;;;;;15.30;5.32;;;;;;;27.58;39.57;98219.59;4378788;32;20124;-81
2023/10/13 14:51:18;;;;;;;12.65;5.28;;;;;;;27.82;39.85;98209.94;4380145;32;20166;-81
2023/10/13 14:53:45;;;;;;;18.48;5.50;;;;;;;27.94;39.41;98212.03;4380362;32;20095;-81
2023/10/13 14:56:14;;;;;;;18.90;5.93;;;;;;;27.90;39.57;98209.91;4379888;32;20813;-81
2023/10/13 14:58:44;;;;;;;15.20;5.70;;;;;;;27.57;40.43;98211.81;4379218;32;20083;-81
2023/10/13 15:01:15;;;;;;;17.45;6.12;;;;;;;27.23;41.77;98207.56;4380307;32;20094;-81
2023/10/13 15:03:45;;;;;;;13.73;5.78;;;;;;;27.12;42.61;98207.06;4378837;32;20114;-81
2023/10/13 15:06:24;;;;;;;13.10;5.35;;;;;;;27.65;41.92;98201.22;4378978;32;20552;-81
2023/10/13 15:08:55;;;;;;;17.00;6.65;;;;;;;27.82;41.90;98207.28;4378579;32;20119;-81
2023/10/13 15:11:26;;;;;;;14.70;5.47;;;;;;;27.44;43.04;98204.38;4380116;32;20113;-81
2023/10/13 15:13:55;;;;;;;15.70;7.10;;;;;;;27.13;44.02;98200.78;4380121;32;20103;-81
2023/10/13 15:16:24;;;;;;;16.85;6.10;;;;;;;27.12;44.44;98199.94;4379774;32;20512;-81
2023/10/13 15:18:52;;;;;;;17.98;6.62;;;;;;;27.09;44.85;98211.69;4380069;32;20091;-81
2023/10/13 15:21:22;;;;;;;16.48;6.78;;;;;;;27.44;44.55;98208.84;4378855;32;20103;-81
2023/10/13 15:23:51;;;;;;;18.80;6.85;;;;;;;27.24;45.22;98195.13;4379833;32;20086;-82
2023/10/13 15:26:21;;;;;;;16.15;7.18;;;;;;;27.06;45.91;98200.59;4379869;32;20086;-81
2023/10/13 15:28:55;;;;;;;18.42;7.10;;;;;;;26.87;46.77;98207.00;4379995;32;20102;-82
2023/10/13 15:31:25;;;;;;;17.92;6.75;;;;;;;26.99;46.62;98207.50;4379664;32;20099;-81
2023/10/13 15:33:55;;;;;;;17.62;6.70;;;;;;;27.43;45.64;98215.94;4379932;32;20146;-82
2023/10/13 15:36:25;;;;;;;19.02;6.53;;;;;;;27.16;46.40;98205.72;4379722;32;20161;-82
2023/10/13 15:38:53;;;;;;;18.55;6.97;;;;;;;27.79;44.90;98205.81;4379573;32;20082;-82
2023/10/13 15:41:28;;;;;;;17.02;7.35;;;;;;;27.93;44.71;98202.44;4378807;32;20120;-82
2023/10/13 15:43:55;;;;;;;20.80;6.93;;;;;;;27.55;45.57;98205.84;4379643;32;20111;-82